Time;durP1;ratioP1;P1;durP2;ratioP2;P2;SDS_P1;SDS_P2;PMS_P1;PMS_P2;Temp;Humidity;BMP_temperature;BMP_pressure;BME280_temperature;BME280_humidity;BME280_pressure;Samples;Min_cycle;Max_cycle;Signal;HPM_P1;HPM_P2
2021/07/31 00:01:08;;;;;;;9.82;3.03;;;16.00;91.00;;;;;;4994801;28;20054;-50
2021/07/31 00:03:40;;;;;;;11.00;3.33;;;16.00;90.80;;;;;;5004953;28;20084;-47
2021/07/31 00:06:07;;;;;;;6.93;3.08;;;16.00;90.80;;;;;;4977890;28;20061;-51
2021/07/31 00:08:33;;;;;;;9.13;3.20;;;16.00;90.80;;;;;;4994689;28;20046;-49
2021/07/31 00:10:59;;;;;;;10.80;3.25;;;16.00;90.90;;;;;;4994527;28;20073;-52
2021/07/31 00:13:27;;;;;;;13.88;3.63;;;16.00;90.80;;;;;;5004924;28;20506;-51
2021/07/31 00:15:53;;;;;;;8.23;3.42;;;16.00;90.70;;;;;;4982659;28;20133;-48
2021/07/31 00:18:18;;;;;;;8.50;3.20;;;16.00;90.80;;;;;;4984656;28;20074;-50
2021/07/31 00:20:44;;;;;;;9.75;3.17;;;16.00;90.80;;;;;;4985342;28;20050;-50
2021/07/31 00:23:10;;;;;;;10.55;3.83;;;15.90;90.90;;;;;;4994955;28;20093;-49
2021/07/31 00:25:36;;;;;;;10.27;3.78;;;16.00;90.90;;;;;;4992404;28;20034;-47
2021/07/31 00:28:03;;;;;;;10.45;4.20;;;16.00;90.90;;;;;;5002297;28;20100;-50
2021/07/31 00:30:29;;;;;;;10.18;3.75;;;16.00;90.90;;;;;;4998049;28;20054;-53
2021/07/31 00:32:55;;;;;;;9.05;3.60;;;16.00;90.90;;;;;;4999590;28;20561;-48
2021/07/31 00:35:21;;;;;;;12.07;3.70;;;15.90;90.90;;;;;;4993924;28;20046;-49
2021/07/31 00:37:47;;;;;;;7.60;3.50;;;16.00;90.90;;;;;;4998934;28;20043;-48
2021/07/31 00:40:14;;;;;;;9.15;3.90;;;16.10;90.80;;;;;;4979002;28;20224;-51
2021/07/31 00:42:43;;;;;;;9.48;3.50;;;16.00;90.80;;;;;;4995152;28;20047;-51
2021/07/31 00:45:11;;;;;;;9.32;3.42;;;16.00;90.80;;;;;;4976933;28;20049;-49
2021/07/31 00:47:37;;;;;;;8.27;3.90;;;16.00;90.80;;;;;;5001098;28;20136;-51
2021/07/31 00:50:04;;;;;;;8.02;3.67;;;16.00;90.80;;;;;;4994901;28;20081;-48
2021/07/31 00:52:30;;;;;;;10.02;3.90;;;16.00;90.80;;;;;;4993861;28;20105;-51
2021/07/31 00:54:59;;;;;;;10.18;4.15;;;16.10;90.80;;;;;;4993437;28;20031;-52
2021/07/31 00:57:27;;;;;;;10.82;4.25;;;16.10;90.90;;;;;;4960548;28;20046;-51
2021/07/31 00:59:53;;;;;;;14.73;4.55;;;16.00;90.90;;;;;;4993454;28;20414;-51
2021/07/31 01:02:19;;;;;;;10.68;4.57;;;16.00;90.90;;;;;;4993862;28;20046;-51
2021/07/31 01:04:45;;;;;;;8.05;4.40;;;16.00;91.00;;;;;;4993310;28;20039;-53
2021/07/31 01:07:12;;;;;;;14.90;5.28;;;16.00;91.00;;;;;;5007499;28;20459;-48
2021/07/31 01:09:39;;;;;;;12.45;5.25;;;16.00;91.50;;;;;;4961704;28;20042;-49
2021/07/31 01:12:05;;;;;;;11.93;4.70;;;15.90;91.50;;;;;;4978943;28;20057;-50
2021/07/31 01:14:30;;;;;;;12.75;6.10;;;15.80;92.10;;;;;;4991396;28;20043;-51
2021/07/31 01:16:56;;;;;;;11.43;5.95;;;15.70;92.20;;;;;;4993734;28;20392;-47
2021/07/31 01:19:22;;;;;;;15.32;5.78;;;15.70;92.40;;;;;;4992772;28;20073;-47
2021/07/31 01:21:51;;;;;;;16.88;6.05;;;15.60;92.70;;;;;;4993348;28;20081;-51
2021/07/31 01:24:16;;;;;;;13.68;5.55;;;15.60;93.10;;;;;;4970430;28;20038;-50
2021/07/31 01:26:47;;;;;;;14.55;6.22;;;15.50;93.10;;;;;;4999423;28;20589;-47
2021/07/31 01:29:15;;;;;;;12.25;5.60;;;15.50;93.60;;;;;;4990679;28;20093;-48
2021/07/31 01:31:43;;;;;;;12.45;5.38;;;15.40;93.50;;;;;;4968346;28;20092;-48
2021/07/31 01:34:10;;;;;;;17.42;5.93;;;15.40;93.80;;;;;;4983906;28;20065;-50
2021/07/31 01:36:39;;;;;;;13.02;5.55;;;15.50;94.10;;;;;;4975455;28;20070;-47
2021/07/31 01:39:05;;;;;;;15.65;6.13;;;15.50;93.80;;;;;;4983298;28;20050;-52
2021/07/31 01:41:31;;;;;;;13.52;5.43;;;15.50;93.70;;;;;;4987068;28;20539;-47
2021/07/31 01:44:00;;;;;;;13.35;5.85;;;15.50;93.60;;;;;;4968989;28;20053;-50
2021/07/31 01:46:25;;;;;;;14.77;6.10;;;15.40;93.80;;;;;;4976473;28;20041;-50
2021/07/31 01:48:51;;;;;;;13.45;6.03;;;15.50;93.70;;;;;;4993790;28;20046;-49
2021/07/31 01:51:17;;;;;;;12.85;6.05;;;15.50;93.80;;;;;;4959757;28;20061;-50
2021/07/31 01:53:45;;;;;;;16.13;6.47;;;15.50;93.80;;;;;;4994321;28;20046;-49
2021/07/31 01:56:12;;;;;;;10.90;5.68;;;15.50;93.60;;;;;;4993897;28;20130;-50
2021/07/31 01:58:38;;;;;;;13.95;5.50;;;15.50;93.50;;;;;;4979082;28;20126;-52
2021/07/31 02:01:03;;;;;;;14.95;5.70;;;15.50;93.50;;;;;;4991052;28;20458;-51
2021/07/31 02:03:29;;;;;;;13.77;6.43;;;15.60;93.50;;;;;;4983792;28;20034;-51
2021/07/31 02:05:55;;;;;;;14.13;6.53;;;15.60;93.50;;;;;;4997279;28;20454;-50
2021/07/31 02:08:21;;;;;;;13.43;6.50;;;15.60;93.50;;;;;;4995911;28;20529;-47
2021/07/31 02:10:46;;;;;;;13.88;6.05;;;15.60;93.40;;;;;;4994203;28;20042;-49
2021/07/31 02:13:12;;;;;;;12.05;6.18;;;15.60;93.50;;;;;;4988894;28;20046;-47
2021/07/31 02:15:43;;;;;;;12.27;6.15;;;15.60;93.40;;;;;;4998907;28;20410;-49
2021/07/31 02:18:11;;;;;;;13.90;5.70;;;15.60;93.40;;;;;;4980561;28;20050;-52
2021/07/31 02:20:39;;;;;;;14.70;6.75;;;15.60;93.30;;;;;;4998565;28;20046;-48
2021/07/31 02:23:05;;;;;;;15.90;6.53;;;15.60;93.30;;;;;;4963462;28;20046;-50
2021/07/31 02:25:33;;;;;;;15.98;7.28;;;15.60;93.30;;;;;;4967667;28;20202;-51
2021/07/31 02:27:58;;;;;;;13.27;7.70;;;15.60;93.70;;;;;;4989310;28;20437;-53
2021/07/31 02:30:25;;;;;;;18.50;7.70;;;15.50;93.70;;;;;;4995238;28;20054;-50
2021/07/31 02:32:55;;;;;;;15.65;7.90;;;15.50;94.30;;;;;;4959123;28;20046;-53
2021/07/31 02:35:20;;;;;;;12.95;7.25;;;15.40;94.30;;;;;;4962877;28;20046;-51
2021/07/31 02:37:48;;;;;;;14.60;7.90;;;15.40;94.20;;;;;;4995323;28;20479;-50
2021/07/31 02:40:14;;;;;;;15.07;7.80;;;15.40;94.30;;;;;;4978774;28;20034;-53
2021/07/31 02:42:39;;;;;;;19.08;8.65;;;15.40;94.50;;;;;;4966844;28;20129;-49
2021/07/31 02:45:06;;;;;;;15.07;8.70;;;15.40;94.60;;;;;;4995855;28;20077;-52
2021/07/31 02:47:33;;;;;;;14.23;7.60;;;15.40;94.60;;;;;;4991071;28;20105;-51
2021/07/31 02:49:59;;;;;;;15.40;8.10;;;15.40;94.70;;;;;;4996129;28;20050;-52
2021/07/31 02:52:25;;;;;;;16.98;7.88;;;15.40;94.60;;;;;;4998192;28;20435;-52
2021/07/31 02:54:51;;;;;;;15.43;7.95;;;15.40;94.70;;;;;;5008666;28;20074;-47
2021/07/31 02:57:19;;;;;;;15.30;7.80;;;15.40;94.70;;;;;;4981149;28;20029;-50
2021/07/31 02:59:46;;;;;;;12.98;7.68;;;15.40;94.70;;;;;;4999344;28;20517;-48
2021/07/31 03:02:12;;;;;;;14.05;7.80;;;15.40;94.50;;;;;;5002787;28;20042;-52
2021/07/31 03:04:39;;;;;;;11.13;7.20;;;15.40;94.70;;;;;;4981817;28;20104;-51
2021/07/31 03:07:07;;;;;;;16.45;7.97;;;15.40;94.60;;;;;;4984042;28;20560;-53
2021/07/31 03:09:35;;;;;;;14.45;8.13;;;15.40;94.60;;;;;;5008761;28;20053;-51
2021/07/31 03:12:01;;;;;;;16.15;8.60;;;15.40;94.70;;;;;;4962320;28;20189;-50
2021/07/31 03:14:32;;;;;;;15.32;7.43;;;15.40;94.70;;;;;;4966015;28;20134;-53
2021/07/31 03:16:59;;;;;;;13.60;8.55;;;15.40;94.90;;;;;;4973628;28;20411;-49
2021/07/31 03:19:27;;;;;;;15.27;8.07;;;15.40;94.70;;;;;;5006036;28;20159;-48
2021/07/31 03:21:55;;;;;;;14.15;8.43;;;15.40;94.80;;;;;;4957573;28;20038;-50
2021/07/31 03:24:21;;;;;;;13.40;8.07;;;15.40;94.80;;;;;;4993755;28;20045;-48
2021/07/31 03:26:46;;;;;;;19.25;8.82;;;15.40;94.80;;;;;;4976731;28;20030;-50
2021/07/31 03:29:12;;;;;;;14.77;8.13;;;15.40;94.90;;;;;;4990876;28;20038;-50
2021/07/31 03:31:38;;;;;;;14.63;7.80;;;15.40;95.00;;;;;;4992401;28;20045;-51
2021/07/31 03:34:05;;;;;;;12.73;7.72;;;15.40;94.90;;;;;;4976941;28;20177;-53
2021/07/31 03:36:32;;;;;;;12.95;8.23;;;15.40;94.90;;;;;;4978702;28;20046;-51
2021/07/31 03:38:58;;;;;;;12.80;7.90;;;15.40;94.90;;;;;;4994168;28;20049;-51
2021/07/31 03:41:25;;;;;;;16.45;8.20;;;15.40;94.80;;;;;;4972098;28;20059;-53
2021/07/31 03:43:56;;;;;;;14.18;7.75;;;15.40;94.70;;;;;;4974737;28;20046;-48
2021/07/31 03:46:23;;;;;;;18.35;8.23;;;15.40;94.70;;;;;;4991248;28;20034;-48
2021/07/31 03:48:49;;;;;;;12.90;7.80;;;15.40;94.70;;;;;;4985893;28;20112;-48
2021/07/31 03:51:19;;;;;;;13.80;7.75;;;15.50;94.80;;;;;;4988585;28;20135;-48
2021/07/31 03:53:44;;;;;;;15.27;8.05;;;15.40;94.70;;;;;;5003704;28;20100;-50
2021/07/31 03:56:12;;;;;;;12.82;8.35;;;15.40;94.80;;;;;;5008808;28;20133;-49
2021/07/31 03:58:39;;;;;;;16.63;8.55;;;15.40;94.80;;;;;;4996729;28;20046;-47
2021/07/31 04:01:05;;;;;;;13.82;7.70;;;15.40;95.00;;;;;;5001557;28;20111;-48
2021/07/31 04:03:32;;;;;;;14.30;7.72;;;15.40;94.90;;;;;;4996351;28;20350;-48
2021/07/31 04:05:59;;;;;;;14.05;7.50;;;15.40;95.00;;;;;;5007538;28;20486;-48
2021/07/31 04:08:25;;;;;;;15.80;7.90;;;15.50;95.00;;;;;;5008194;28;20053;-47
2021/07/31 04:10:51;;;;;;;14.02;7.22;;;15.50;94.90;;;;;;4996172;28;20636;-52
2021/07/31 04:13:17;;;;;;;12.90;7.88;;;15.50;95.00;;;;;;5001666;28;20046;-51
2021/07/31 04:15:44;;;;;;;9.98;7.47;;;15.50;95.00;;;;;;4997797;28;20053;-51
2021/07/31 04:18:10;;;;;;;22.67;8.00;;;15.50;95.10;;;;;;4977254;28;20468;-50
2021/07/31 04:20:35;;;;;;;14.30;7.60;;;15.50;95.10;;;;;;4996043;28;20065;-51
2021/07/31 04:23:01;;;;;;;12.15;6.90;;;15.50;95.10;;;;;;4996096;28;20050;-53
2021/07/31 04:25:27;;;;;;;14.52;7.18;;;15.50;95.00;;;;;;4988161;28;20471;-50
2021/07/31 04:27:53;;;;;;;10.07;7.03;;;15.50;95.00;;;;;;4978286;28;20046;-53
2021/07/31 04:30:19;;;;;;;15.52;7.15;;;15.50;95.10;;;;;;4988796;28;20046;-52
2021/07/31 04:32:45;;;;;;;16.23;6.95;;;15.50;95.00;;;;;;4996818;28;20076;-51
2021/07/31 04:35:31;;;;;;;13.18;6.80;;;15.50;95.00;;;;;;4976114;28;20043;-50
2021/07/31 04:37:57;;;;;;;14.57;6.82;;;15.50;94.90;;;;;;4994889;28;20044;-51
2021/07/31 04:40:23;;;;;;;11.00;6.18;;;15.50;94.90;;;;;;4999213;28;20391;-48
2021/07/31 04:42:50;;;;;;;15.98;6.95;;;15.50;95.00;;;;;;5000146;28;20046;-51
2021/07/31 04:45:16;;;;;;;15.00;6.40;;;15.50;95.10;;;;;;4979989;28;20049;-48
2021/07/31 04:47:43;;;;;;;14.13;5.68;;;15.50;95.00;;;;;;5000793;28;20038;-48
2021/07/31 04:50:12;;;;;;;15.52;5.72;;;15.60;94.90;;;;;;4998324;28;20096;-48
2021/07/31 04:52:40;;;;;;;13.93;5.60;;;15.60;94.90;;;;;;4983731;28;20050;-47
2021/07/31 04:55:09;;;;;;;15.18;5.22;;;15.60;95.00;;;;;;4998983;28;20039;-47
2021/07/31 04:57:35;;;;;;;14.48;5.75;;;15.60;95.00;;;;;;5012778;28;20069;-51
2021/07/31 05:00:02;;;;;;;10.20;5.40;;;15.60;95.00;;;;;;4982323;28;20114;-50
2021/07/31 05:02:32;;;;;;;14.80;5.32;;;15.60;94.90;;;;;;4989700;28;20053;-50
2021/07/31 05:05:00;;;;;;;13.75;5.70;;;15.60;95.00;;;;;;4979597;28;20038;-49
2021/07/31 05:07:26;;;;;;;18.73;5.18;;;15.60;95.00;;;;;;4981809;28;20057;-50
2021/07/31 05:09:52;;;;;;;14.32;6.20;;;15.60;95.10;;;;;;4998378;28;20043;-49
2021/07/31 05:12:18;;;;;;;13.27;5.18;;;15.60;95.30;;;;;;5000363;28;20057;-50
2021/07/31 05:14:44;;;;;;;18.92;5.78;;;15.50;95.50;;;;;;4996814;28;20487;-48
2021/07/31 05:17:10;;;;;;;16.45;5.38;;;15.50;95.70;;;;;;4984069;28;20034;-49
2021/07/31 05:19:36;;;;;;;12.30;5.50;;;15.50;95.70;;;;;;5002890;28;20069;-49
2021/07/31 05:22:02;;;;;;;15.25;5.70;;;15.50;95.70;;;;;;4998322;28;20050;-47
2021/07/31 05:24:27;;;;;;;17.63;5.35;;;15.50;95.70;;;;;;4998444;28;20054;-47
2021/07/31 05:26:53;;;;;;;13.88;5.35;;;15.50;95.70;;;;;;4984944;28;20074;-50
2021/07/31 05:29:20;;;;;;;15.30;5.60;;;15.50;95.70;;;;;;4988341;28;20054;-51
2021/07/31 05:31:46;;;;;;;14.77;5.30;;;15.60;95.80;;;;;;4979529;28;20042;-50
2021/07/31 05:34:12;;;;;;;12.98;5.60;;;15.60;95.80;;;;;;4989034;28;20134;-50
2021/07/31 05:36:39;;;;;;;13.05;5.13;;;15.60;95.80;;;;;;5000159;28;20070;-51
2021/07/31 05:39:07;;;;;;;18.42;5.82;;;15.60;96.10;;;;;;4982021;28;20048;-50
2021/07/31 05:41:33;;;;;;;21.02;5.93;;;15.60;95.80;;;;;;4981007;28;20326;-52
2021/07/31 05:43:59;;;;;;;15.05;5.38;;;15.60;96.00;;;;;;4964888;28;20129;-50
2021/07/31 05:46:25;;;;;;;13.77;5.45;;;15.70;95.80;;;;;;4998832;28;20088;-51
2021/07/31 05:48:52;;;;;;;14.30;5.45;;;15.70;95.70;;;;;;5011669;28;20528;-51
2021/07/31 05:51:18;;;;;;;14.20;5.60;;;15.70;95.60;;;;;;4999099;28;20053;-50
2021/07/31 05:53:44;;;;;;;12.30;5.50;;;15.70;95.60;;;;;;4996654;28;20109;-52
2021/07/31 05:56:11;;;;;;;14.95;5.63;;;15.70;95.40;;;;;;5001132;28;20081;-51
2021/07/31 05:58:37;;;;;;;15.52;6.30;;;15.80;95.30;;;;;;4981648;28;20030;-49
2021/07/31 06:01:07;;;;;;;11.65;5.60;;;15.80;95.40;;;;;;4992927;28;20073;-51
2021/07/31 06:03:39;;;;;;;13.75;5.75;;;15.80;95.20;;;;;;4986381;28;20074;-50
2021/07/31 06:06:06;;;;;;;14.48;6.00;;;15.80;95.20;;;;;;4979033;28;20049;-53
2021/07/31 06:08:32;;;;;;;13.00;6.00;;;15.80;95.00;;;;;;4991964;28;20085;-52
2021/07/31 06:11:05;;;;;;;16.95;5.32;;;15.80;95.10;;;;;;4995800;28;20061;-50
2021/07/31 06:13:33;;;;;;;11.55;5.68;;;15.90;95.10;;;;;;4986457;28;20054;-50
2021/07/31 06:16:02;;;;;;;12.48;5.50;;;15.90;95.10;;;;;;5003129;28;20042;-52
2021/07/31 06:18:29;;;;;;;13.45;5.85;;;15.90;95.20;;;;;;4960319;28;20133;-52
2021/07/31 06:20:55;;;;;;;13.38;5.32;;;15.80;95.10;;;;;;4977683;28;20046;-49
2021/07/31 06:23:24;;;;;;;14.90;6.10;;;15.80;95.20;;;;;;4999282;28;20053;-49
2021/07/31 06:25:51;;;;;;;12.88;5.68;;;15.80;95.40;;;;;;5012273;28;20050;-51
2021/07/31 06:28:17;;;;;;;13.45;5.38;;;15.70;95.50;;;;;;4984844;28;20160;-52
2021/07/31 06:30:43;;;;;;;14.40;5.55;;;15.70;95.50;;;;;;5006673;28;20510;-53
2021/07/31 06:33:11;;;;;;;15.73;5.75;;;15.80;95.50;;;;;;4975197;28;20061;-53
2021/07/31 06:35:37;;;;;;;14.88;5.30;;;15.80;95.50;;;;;;4998102;28;20062;-48
2021/07/31 06:38:02;;;;;;;10.48;5.13;;;15.80;95.40;;;;;;4983259;28;20050;-50
2021/07/31 06:40:29;;;;;;;17.50;5.60;;;15.80;95.60;;;;;;4996027;28;20042;-47
2021/07/31 06:42:57;;;;;;;14.75;5.00;;;15.80;95.50;;;;;;4977165;28;20092;-48
2021/07/31 06:45:23;;;;;;;11.55;5.47;;;15.80;95.60;;;;;;4996127;28;20729;-47
2021/07/31 06:47:48;;;;;;;13.80;5.15;;;15.90;95.80;;;;;;4997121;28;20096;-52
2021/07/31 06:50:14;;;;;;;19.95;5.28;;;15.90;95.70;;;;;;4995540;28;20121;-47
2021/07/31 06:52:43;;;;;;;14.23;5.10;;;15.90;95.60;;;;;;4997184;28;20053;-48
2021/07/31 06:55:09;;;;;;;15.07;5.22;;;15.90;95.60;;;;;;4977190;28;20107;-51
2021/07/31 06:57:36;;;;;;;14.10;5.28;;;16.00;95.60;;;;;;4998014;28;20411;-52
2021/07/31 07:00:04;;;;;;;16.55;5.38;;;16.00;95.60;;;;;;4996212;28;20046;-48
2021/07/31 07:02:30;;;;;;;13.93;6.38;;;16.00;95.50;;;;;;5015691;28;20088;-50
2021/07/31 07:04:56;;;;;;;16.33;5.13;;;16.00;95.50;;;;;;5002917;28;20050;-51
2021/07/31 07:07:21;;;;;;;15.00;4.32;;;16.00;95.40;;;;;;4988219;28;20447;-51
2021/07/31 07:09:47;;;;;;;10.93;4.40;;;16.10;95.50;;;;;;5009801;28;20045;-50
2021/07/31 07:12:16;;;;;;;10.98;4.32;;;16.10;95.30;;;;;;4988666;28;20069;-52
2021/07/31 07:14:45;;;;;;;14.25;4.57;;;16.20;95.10;;;;;;4979780;28;20065;-52
2021/07/31 07:17:11;;;;;;;13.27;4.13;;;16.30;94.80;;;;;;4978252;28;20042;-51
2021/07/31 07:19:37;;;;;;;10.18;4.32;;;16.30;94.90;;;;;;4992436;28;20042;-50
2021/07/31 07:22:03;;;;;;;12.95;4.32;;;16.40;95.00;;;;;;4994112;28;20053;-53
2021/07/31 07:24:29;;;;;;;12.20;3.72;;;16.50;94.80;;;;;;4976676;28;20050;-51
2021/07/31 07:26:55;;;;;;;9.18;3.72;;;16.50;94.50;;;;;;4998047;28;20279;-53
2021/07/31 07:29:21;;;;;;;8.57;3.83;;;16.50;94.40;;;;;;4998293;28;20204;-50
2021/07/31 07:31:49;;;;;;;9.73;3.45;;;16.50;94.50;;;;;;4969171;28;20045;-50
2021/07/31 07:34:16;;;;;;;7.93;3.55;;;16.50;94.70;;;;;;4969523;28;20046;-50
2021/07/31 07:36:42;;;;;;;7.78;3.05;;;16.50;94.50;;;;;;4992834;28;20509;-48
2021/07/31 07:39:09;;;;;;;8.18;3.40;;;16.60;94.40;;;;;;4997874;28;20062;-54
2021/07/31 07:41:41;;;;;;;10.35;3.75;;;16.70;94.40;;;;;;4984048;28;20054;-53
2021/07/31 07:44:06;;;;;;;10.98;3.35;;;16.60;94.40;;;;;;4963963;28;20512;-50
2021/07/31 07:46:35;;;;;;;9.07;3.67;;;16.60;94.30;;;;;;4993513;28;20102;-53
2021/07/31 07:49:01;;;;;;;9.73;3.47;;;16.70;94.40;;;;;;4972299;28;20039;-50
2021/07/31 07:51:26;;;;;;;9.35;3.35;;;16.70;94.30;;;;;;4981571;28;20126;-50
2021/07/31 07:53:52;;;;;;;10.82;3.92;;;16.60;94.40;;;;;;4989212;28;20081;-49
2021/07/31 07:56:18;;;;;;;11.75;3.97;;;16.60;94.40;;;;;;4985048;28;20501;-50
2021/07/31 07:58:43;;;;;;;9.88;4.03;;;16.60;94.50;;;;;;5012068;28;20113;-47
2021/07/31 08:01:10;;;;;;;11.25;3.92;;;16.50;94.60;;;;;;4999906;28;20094;-48
2021/07/31 08:03:35;;;;;;;11.93;4.22;;;16.50;94.60;;;;;;5000824;28;20049;-47
2021/07/31 08:06:01;;;;;;;11.73;3.60;;;16.50;94.60;;;;;;5000101;28;20046;-47
2021/07/31 08:08:28;;;;;;;12.27;3.80;;;16.60;94.70;;;;;;4993834;28;20042;-50
2021/07/31 08:11:07;;;;;;;10.60;4.00;;;16.80;94.80;;;;;;4996780;28;20045;-50
2021/07/31 08:13:32;;;;;;;10.77;3.83;;;17.00;94.60;;;;;;4997382;28;20113;-51
2021/07/31 08:15:58;;;;;;;10.07;3.42;;;17.20;94.10;;;;;;4998594;28;20046;-51
2021/07/31 08:18:24;;;;;;;11.20;3.60;;;17.40;93.60;;;;;;5000153;28;20081;-49
2021/07/31 08:20:49;;;;;;;9.35;3.40;;;17.60;92.60;;;;;;4999340;28;20054;-49
2021/07/31 08:23:15;;;;;;;9.45;3.38;;;17.60;92.30;;;;;;4997651;28;20061;-48
2021/07/31 08:25:41;;;;;;;9.55;3.50;;;17.70;91.90;;;;;;4991619;28;20046;-50
2021/07/31 08:28:06;;;;;;;12.07;3.50;;;17.70;91.70;;;;;;5011971;28;20042;-48
2021/07/31 08:30:35;;;;;;;9.70;3.70;;;17.70;91.90;;;;;;5005160;28;20049;-50
2021/07/31 08:33:01;;;;;;;9.73;3.42;;;17.70;91.80;;;;;;4982369;28;20086;-48
2021/07/31 08:35:27;;;;;;;10.60;3.40;;;17.80;92.00;;;;;;4996815;28;20046;-52
2021/07/31 08:37:52;;;;;;;11.77;3.47;;;17.70;91.90;;;;;;4999255;28;20039;-48
2021/07/31 08:40:20;;;;;;;10.05;3.63;;;17.80;91.90;;;;;;4998229;28;20073;-48
2021/07/31 08:42:46;;;;;;;10.82;3.38;;;17.80;91.60;;;;;;4999481;28;20046;-50
2021/07/31 08:45:12;;;;;;;7.13;2.88;;;17.90;91.60;;;;;;4999014;28;20114;-49
2021/07/31 08:47:39;;;;;;;8.45;3.08;;;17.90;90.90;;;;;;4998796;28;20046;-50
2021/07/31 08:50:06;;;;;;;7.80;2.90;;;17.80;90.90;;;;;;5001213;28;20043;-48
2021/07/31 08:52:33;;;;;;;8.20;3.10;;;17.80;91.20;;;;;;4991222;28;20047;-48
2021/07/31 08:55:02;;;;;;;7.90;2.63;;;17.70;91.50;;;;;;4996769;28;20041;-54
2021/07/31 08:57:28;;;;;;;9.98;2.80;;;17.70;91.60;;;;;;4999375;28;20053;-51
2021/07/31 08:59:54;;;;;;;8.15;2.70;;;17.70;91.50;;;;;;5004763;28;20037;-50
2021/07/31 09:02:20;;;;;;;11.15;2.67;;;17.70;91.30;;;;;;5002888;28;20043;-51
2021/07/31 09:04:50;;;;;;;10.90;3.08;;;17.70;91.50;;;;;;4999815;28;20042;-50
2021/07/31 09:07:16;;;;;;;6.90;2.63;;;17.90;91.40;;;;;;4967154;28;20092;-52
2021/07/31 09:09:41;;;;;;;7.63;2.55;;;18.00;91.10;;;;;;4994465;28;20110;-47
2021/07/31 09:12:09;;;;;;;9.57;2.50;;;18.00;91.10;;;;;;4996391;28;20046;-48
2021/07/31 09:14:42;;;;;;;5.28;2.40;;;18.00;91.00;;;;;;4995228;28;20053;-51
2021/07/31 09:17:23;;;;;;;10.02;2.67;;;18.10;91.40;;;;;;4995054;28;20042;-48
2021/07/31 09:19:53;;;;;;;7.47;2.47;;;18.30;91.10;;;;;;4996646;28;20038;-48
2021/07/31 09:22:19;;;;;;;8.65;2.42;;;18.50;91.20;;;;;;4967183;28;20089;-51
2021/07/31 09:25:13;;;;;;;5.05;1.98;;;18.60;90.60;;;;;;4992972;28;20038;-51
2021/07/31 09:27:40;;;;;;;4.45;2.05;;;18.70;90.40;;;;;;4985669;28;20491;-53
2021/07/31 09:30:06;;;;;;;6.40;2.13;;;18.70;90.40;;;;;;4978747;28;20046;-51
2021/07/31 09:32:40;;;;;;;6.60;2.17;;;18.70;89.80;;;;;;4995726;28;20093;-50
2021/07/31 09:35:23;;;;;;;6.30;1.73;;;18.90;89.60;;;;;;4998255;28;20046;-49
2021/07/31 09:37:53;;;;;;;5.45;1.90;;;18.90;89.40;;;;;;4982323;28;20038;-50
2021/07/31 09:40:35;;;;;;;6.47;2.05;;;18.90;89.10;;;;;;4994707;28;20054;-51
2021/07/31 09:43:13;;;;;;;7.32;2.30;;;18.90;89.90;;;;;;4974990;28;20503;-50
2021/07/31 09:45:39;;;;;;;3.75;2.00;;;18.90;88.90;;;;;;4991576;28;20112;-51
2021/07/31 09:48:08;;;;;;;6.45;2.33;;;18.90;89.70;;;;;;4996956;28;20034;-54
2021/07/31 09:50:46;;;;;;;6.35;2.08;;;19.00;89.90;;;;;;4994278;28;20263;-53
2021/07/31 09:53:15;;;;;;;6.82;2.40;;;19.00;89.50;;;;;;4988728;28;20046;-48
2021/07/31 09:55:48;;;;;;;7.03;2.50;;;18.90;89.20;;;;;;5009454;28;20041;-50
2021/07/31 09:58:17;;;;;;;5.93;2.50;;;19.00;89.60;;;;;;4977076;28;20499;-51
2021/07/31 10:00:45;;;;;;;9.50;2.45;;;19.10;89.90;;;;;;4994273;28;20047;-47
2021/07/31 10:03:14;;;;;;;5.72;2.22;;;18.90;90.20;;;;;;4989076;28;20112;-49
2021/07/31 10:05:43;;;;;;;11.23;3.35;;;18.70;90.60;;;;;;4990978;28;20091;-52
2021/07/31 10:08:13;;;;;;;10.40;3.13;;;18.50;91.30;;;;;;4979131;28;20076;-50
2021/07/31 10:10:42;;;;;;;9.25;3.25;;;18.30;91.70;;;;;;4975947;28;20454;-48
2021/07/31 10:13:09;;;;;;;14.20;3.78;;;18.10;92.70;;;;;;4994270;28;20041;-48
2021/07/31 10:15:35;;;;;;;13.85;4.28;;;18.10;93.20;;;;;;4978455;28;20050;-49
2021/07/31 10:18:13;;;;;;;11.35;3.83;;;18.20;94.10;;;;;;4977992;28;20046;-48
2021/07/31 10:20:39;;;;;;;15.48;4.03;;;18.30;94.60;;;;;;4993626;28;20050;-48
2021/07/31 10:23:07;;;;;;;8.20;3.25;;;18.50;95.50;;;;;;4978222;28;20122;-51
2021/07/31 10:25:34;;;;;;;12.13;3.42;;;18.60;94.40;;;;;;4983829;28;20046;-54
2021/07/31 10:28:22;;;;;;;10.32;3.05;;;18.70;93.90;;;;;;4988567;28;20061;-52
2021/07/31 10:30:48;;;;;;;12.48;3.38;;;18.70;93.50;;;;;;4991500;28;20391;-53
2021/07/31 10:33:44;;;;;;;10.52;3.63;;;18.60;92.80;;;;;;4970386;28;20149;-51
2021/07/31 10:36:28;;;;;;;8.65;3.03;;;18.60;92.90;;;;;;4991294;28;20101;-52
2021/07/31 10:38:55;;;;;;;8.48;3.50;;;18.70;92.60;;;;;;4960613;28;20109;-53
2021/07/31 10:42:02;;;;;;;10.95;3.38;;;18.70;92.70;;;;;;4986606;28;20057;-52
2021/07/31 10:44:29;;;;;;;8.88;3.50;;;18.90;92.70;;;;;;4966661;28;20525;-49
2021/07/31 10:47:20;;;;;;;7.22;3.22;;;19.10;92.10;;;;;;4985275;28;20507;-52
2021/07/31 10:49:47;;;;;;;10.35;3.20;;;19.20;91.00;;;;;;4980527;28;20046;-56
2021/07/31 10:52:51;;;;;;;10.38;3.33;;;19.20;90.70;;;;;;4987180;28;20096;-52
2021/07/31 10:55:19;;;;;;;11.75;3.50;;;19.00;90.40;;;;;;4962257;28;20049;-55
2021/07/31 10:57:54;;;;;;;6.93;2.97;;;19.00;90.30;;;;;;4964202;28;20487;-55
2021/07/31 11:00:32;;;;;;;11.85;3.50;;;19.00;90.50;;;;;;4954885;28;20047;-54
2021/07/31 11:03:30;;;;;;;7.40;4.05;;;19.20;90.40;;;;;;4979349;28;20043;-55
2021/07/31 11:06:00;;;;;;;9.38;3.30;;;19.40;90.60;;;;;;4978614;28;20506;-55
2021/07/31 11:08:33;;;;;;;7.45;2.92;;;19.60;90.30;;;;;;4976108;28;20112;-53
2021/07/31 11:11:14;;;;;;;8.98;3.17;;;19.80;89.10;;;;;;4963190;28;20461;-56
2021/07/31 11:13:45;;;;;;;9.30;3.53;;;19.90;88.20;;;;;;4979215;28;20496;-56
2021/07/31 11:16:15;;;;;;;10.85;3.10;;;20.00;88.30;;;;;;4960512;28;20109;-56
2021/07/31 11:18:44;;;;;;;6.82;2.95;;;20.00;87.70;;;;;;4978720;28;20104;-56
2021/07/31 11:21:28;;;;;;;6.97;3.55;;;19.80;86.50;;;;;;4978811;28;20046;-57
2021/07/31 11:24:01;;;;;;;7.88;3.42;;;19.40;88.20;;;;;;4961644;28;20109;-55
2021/07/31 11:26:32;;;;;;;7.22;3.75;;;19.10;90.00;;;;;;4958467;28;20191;-55
2021/07/31 11:28:59;;;;;;;9.95;3.72;;;18.80;90.80;;;;;;4978733;28;20050;-56
2021/07/31 11:31:26;;;;;;;8.52;4.00;;;18.70;91.30;;;;;;4929177;28;20042;-56
2021/07/31 11:34:01;;;;;;;6.75;4.15;;;18.60;91.90;;;;;;4979757;28;20458;-56
2021/07/31 11:36:28;;;;;;;9.07;4.25;;;18.70;92.40;;;;;;4977539;28;20081;-50
2021/07/31 11:38:54;;;;;;;11.30;4.28;;;19.00;93.20;;;;;;4981825;28;20125;-54
2021/07/31 11:41:20;;;;;;;8.50;3.70;;;19.30;92.90;;;;;;4980508;28;20060;-55
2021/07/31 11:43:53;;;;;;;12.15;3.63;;;19.60;92.50;;;;;;4978500;28;20090;-53
2021/07/31 11:46:30;;;;;;;9.88;4.32;;;19.60;90.50;;;;;;4980984;28;20126;-53
2021/07/31 11:48:57;;;;;;;7.93;3.83;;;19.50;90.20;;;;;;4977694;28;20133;-56
2021/07/31 11:51:23;;;;;;;8.15;4.03;;;19.30;90.50;;;;;;4979477;28;20512;-55
2021/07/31 11:53:53;;;;;;;5.95;3.15;;;18.90;91.00;;;;;;4977545;28;20474;-50
2021/07/31 11:56:23;;;;;;;6.43;3.72;;;18.70;91.50;;;;;;4976844;28;20051;-54
2021/07/31 11:58:52;;;;;;;;;;;18.70;92.40;;;;;;4945033;28;20138;-54
2021/07/31 12:01:19;;;;;;;8.70;3.50;;;18.90;92.50;;;;;;4979611;28;20704;-49
2021/07/31 12:03:49;;;;;;;9.55;3.75;;;19.00;92.00;;;;;;4976078;28;20141;-56
2021/07/31 12:06:44;;;;;;;6.40;3.35;;;19.30;92.20;;;;;;4978673;28;20047;-51
2021/07/31 12:09:28;;;;;;;9.63;3.60;;;19.50;91.40;;;;;;4976433;28;20101;-53
2021/07/31 12:11:57;;;;;;;7.55;3.85;;;19.70;91.40;;;;;;4977558;28;20050;-54
2021/07/31 12:14:37;;;;;;;7.97;3.75;;;19.80;91.00;;;;;;4942812;28;20059;-54
2021/07/31 12:17:23;;;;;;;3.72;2.33;;;19.60;90.70;;;;;;4976809;28;20042;-52
2021/07/31 12:19:55;;;;;;;5.53;2.60;;;19.40;86.00;;;;;;4944648;28;20113;-50
2021/07/31 12:22:31;;;;;;;6.40;3.58;;;19.20;88.00;;;;;;4977480;28;21573;-53
2021/07/31 12:25:14;;;;;;;6.75;3.22;;;19.00;89.20;;;;;;4975546;28;20082;-51
2021/07/31 12:27:51;;;;;;;5.32;3.13;;;19.00;90.10;;;;;;4978748;28;20053;-55
2021/07/31 12:30:48;;;;;;;8.40;3.17;;;19.20;90.60;;;;;;4976076;28;20096;-55
2021/07/31 12:33:19;;;;;;;8.98;3.00;;;19.50;90.80;;;;;;4979012;28;20295;-55
2021/07/31 12:35:52;;;;;;;5.93;3.00;;;19.80;90.30;;;;;;4966478;28;20511;-50
2021/07/31 12:38:20;;;;;;;6.07;2.78;;;19.90;89.70;;;;;;4957980;28;20039;-51
2021/07/31 12:40:55;;;;;;;6.43;2.47;;;19.90;88.50;;;;;;4959054;28;20073;-55
2021/07/31 12:43:23;;;;;;;4.78;2.30;;;19.90;87.00;;;;;;4975060;28;20042;-52
2021/07/31 12:45:51;;;;;;;6.85;2.78;;;19.90;87.30;;;;;;4990278;28;20042;-53
2021/07/31 12:48:17;;;;;;;6.18;2.58;;;19.90;85.30;;;;;;4999880;28;20038;-55